createdAt,value
2019-02-27T00:01:19.296Z,6.60
2019-02-27T00:03:47.429Z,6.58
2019-02-27T00:06:16.053Z,6.22
2019-02-27T00:08:44.120Z,6.75
2019-02-27T00:11:12.372Z,6.15
2019-02-27T00:13:41.116Z,5.97
2019-02-27T00:16:11.178Z,6.12
2019-02-27T00:18:38.775Z,6.87
2019-02-27T00:21:10.028Z,7.62
2019-02-27T00:23:36.554Z,7.47
2019-02-27T00:26:08.840Z,8.10
2019-02-27T00:28:34.131Z,7.75
2019-02-27T00:31:02.710Z,8.78
2019-02-27T00:33:31.184Z,8.90
2019-02-27T00:35:59.146Z,9.93
2019-02-27T00:38:27.240Z,8.63
2019-02-27T00:40:55.397Z,10.55
2019-02-27T00:43:23.391Z,9.88
2019-02-27T00:45:51.435Z,10.45
2019-02-27T00:48:21.171Z,10.43
2019-02-27T00:50:49.117Z,10.60
2019-02-27T00:53:17.078Z,11.15
2019-02-27T00:55:44.981Z,11.20
2019-02-27T00:58:12.931Z,12.55
2019-02-27T01:00:40.826Z,11.85
2019-02-27T01:03:08.730Z,12.20
2019-02-27T01:05:40.793Z,12.35
2019-02-27T01:08:06.644Z,12.10
2019-02-27T01:10:35.001Z,11.53
2019-02-27T01:13:03.449Z,13.05
2019-02-27T01:15:34.544Z,12.07
2019-02-27T01:18:02.537Z,14.90
2019-02-27T01:20:30.708Z,12.58
2019-02-27T01:22:58.865Z,12.00
2019-02-27T01:25:27.154Z,11.90
2019-02-27T01:27:55.226Z,12.63
2019-02-27T01:30:24.463Z,12.35
2019-02-27T01:32:53.218Z,12.90
2019-02-27T01:35:21.187Z,11.83
2019-02-27T01:37:49.151Z,12.23
2019-02-27T01:40:17.930Z,12.05
2019-02-27T01:42:46.630Z,11.50
2019-02-27T01:45:14.804Z,11.65
2019-02-27T01:47:42.769Z,12.07
2019-02-27T01:50:10.721Z,11.80
2019-02-27T01:52:38.808Z,11.97
2019-02-27T01:55:06.887Z,12.53
2019-02-27T01:57:36.796Z,12.03
2019-02-27T02:00:06.292Z,12.45
2019-02-27T02:02:34.887Z,11.38
2019-02-27T02:05:04.394Z,12.05
2019-02-27T02:07:32.471Z,11.22
2019-02-27T02:10:00.537Z,11.12
2019-02-27T02:12:28.584Z,12.90
2019-02-27T02:14:56.680Z,10.23
2019-02-27T02:17:24.751Z,11.12
2019-02-27T02:19:54.166Z,10.90
2019-02-27T02:22:22.636Z,10.60
2019-02-27T02:24:51.904Z,10.75
2019-02-27T02:27:20.399Z,11.60
2019-02-27T02:29:52.926Z,8.90
2019-02-27T02:32:18.269Z,10.23
2019-02-27T02:34:48.053Z,9.05
2019-02-27T02:37:16.189Z,8.68
2019-02-27T02:39:44.156Z,8.98
2019-02-27T02:42:30.865Z,10.78
2019-02-27T02:44:58.800Z,10.28
2019-02-27T02:47:26.682Z,9.25
2019-02-27T02:49:54.763Z,9.93
2019-02-27T02:52:22.674Z,9.95
2019-02-27T02:54:50.797Z,10.08
2019-02-27T02:57:18.703Z,10.15
2019-02-27T02:59:46.626Z,10.10
2019-02-27T03:02:14.523Z,9.98
2019-02-27T03:04:47.918Z,12.18
2019-02-27T03:07:12.078Z,9.70
2019-02-27T03:09:39.979Z,10.28
2019-02-27T03:12:08.963Z,10.30
2019-02-27T03:14:36.855Z,10.35
2019-02-27T03:17:04.779Z,11.20
2019-02-27T03:19:32.672Z,9.75
2019-02-27T03:22:03.599Z,10.28
2019-02-27T03:24:30.143Z,10.72
2019-02-27T03:26:58.028Z,10.80
2019-02-27T03:29:25.930Z,10.80
2019-02-27T03:32:00.195Z,10.13
2019-02-27T03:34:23.440Z,9.65
2019-02-27T03:36:51.311Z,10.65
2019-02-27T03:39:19.208Z,10.82
2019-02-27T03:41:47.470Z,10.48
2019-02-27T03:44:20.236Z,11.43
2019-02-27T03:46:46.381Z,11.25
2019-02-27T03:49:14.323Z,11.80
2019-02-27T03:51:42.259Z,10.43
2019-02-27T03:54:10.173Z,9.90
2019-02-27T03:56:43.431Z,10.82
2019-02-27T03:59:08.092Z,10.58
2019-02-27T04:01:36.065Z,11.65
2019-02-27T04:04:03.998Z,11.78
2019-02-27T04:06:31.884Z,11.50
2019-02-27T04:08:59.998Z,11.38
2019-02-27T04:11:27.918Z,12.33
2019-02-27T04:14:02.940Z,9.85
2019-02-27T04:19:03.139Z,9.95
2019-02-27T04:21:30.628Z,10.23
2019-02-27T04:23:58.587Z,9.90
2019-02-27T04:26:26.763Z,10.78
2019-02-27T04:28:54.927Z,9.78
2019-02-27T04:31:23.123Z,9.53
2019-02-27T04:33:51.399Z,9.88
2019-02-27T04:36:19.450Z,10.00
2019-02-27T04:38:48.062Z,9.20
2019-02-27T04:41:18.174Z,9.85
2019-02-27T04:43:45.711Z,9.38
2019-02-27T04:46:13.908Z,9.80
2019-02-27T04:48:42.089Z,10.85
2019-02-27T04:51:10.059Z,11.08
2019-02-27T04:53:38.123Z,12.58
2019-02-27T04:56:06.485Z,14.60
2019-02-27T04:58:34.446Z,12.37
2019-02-27T05:01:02.541Z,11.73
2019-02-27T05:03:30.718Z,12.13
2019-02-27T05:05:58.893Z,11.78
2019-02-27T05:08:27.732Z,11.60
2019-02-27T05:10:55.855Z,13.62
2019-02-27T05:13:24.022Z,13.25
2019-02-27T05:15:52.205Z,15.88
2019-02-27T05:18:20.173Z,15.28
2019-02-27T05:20:48.348Z,14.35
2019-02-27T05:23:16.400Z,15.38
2019-02-27T05:25:44.702Z,15.38
2019-02-27T05:28:13.168Z,15.20
2019-02-27T05:30:44.870Z,15.48
2019-02-27T05:33:10.966Z,16.02
2019-02-27T05:35:39.031Z,14.63
2019-02-27T05:38:07.308Z,15.20
2019-02-27T05:40:35.381Z,15.00
2019-02-27T05:43:03.447Z,14.65
2019-02-27T05:45:31.526Z,13.83
2019-02-27T05:47:59.493Z,13.55
2019-02-27T05:50:27.439Z,14.07
2019-02-27T05:52:55.533Z,15.28
2019-02-27T05:55:23.793Z,14.75
2019-02-27T05:57:52.100Z,14.23
2019-02-27T06:00:21.660Z,14.78
2019-02-27T06:02:49.766Z,16.25
2019-02-27T06:05:17.942Z,17.05
2019-02-27T06:07:46.011Z,16.85
2019-02-27T06:10:14.217Z,16.62
2019-02-27T06:12:42.342Z,16.90
2019-02-27T06:15:12.509Z,17.70
2019-02-27T06:17:43.363Z,18.10
2019-02-27T06:20:10.351Z,16.82
2019-02-27T06:22:40.250Z,17.57
2019-02-27T06:25:09.991Z,17.92
2019-02-27T06:27:39.426Z,17.95
2019-02-27T06:30:07.778Z,20.00
2019-02-27T06:32:48.134Z,17.17
2019-02-27T06:35:16.042Z,14.85
2019-02-27T06:37:44.172Z,13.70
2019-02-27T06:40:12.324Z,16.12
2019-02-27T06:42:40.293Z,16.35
2019-02-27T06:45:27.306Z,15.78
2019-02-27T06:47:55.152Z,15.32
2019-02-27T06:50:25.197Z,14.47
2019-02-27T06:52:52.644Z,14.28
2019-02-27T06:55:20.580Z,13.62
2019-02-27T06:57:48.429Z,14.00
2019-02-27T07:00:16.888Z,13.25
2019-02-27T07:02:44.770Z,14.95
2019-02-27T07:05:13.557Z,14.70
2019-02-27T07:07:42.167Z,15.75
2019-02-27T07:10:10.044Z,17.65
2019-02-27T07:12:37.946Z,18.10
2019-02-27T07:15:06.211Z,18.07
2019-02-27T07:17:34.231Z,19.35
2019-02-27T07:20:02.127Z,19.55
2019-02-27T07:22:30.178Z,18.80
2019-02-27T07:24:58.070Z,19.02
2019-02-27T07:27:28.313Z,19.10
2019-02-27T07:29:55.766Z,19.25
2019-02-27T07:32:23.639Z,19.20
2019-02-27T07:34:51.526Z,18.87
2019-02-27T07:37:19.375Z,18.50
2019-02-27T07:39:47.222Z,19.52
2019-02-27T07:42:15.138Z,21.95
2019-02-27T07:44:43.047Z,19.85
2019-02-27T07:47:10.926Z,20.52
2019-02-27T07:49:38.818Z,20.05
2019-02-27T07:52:06.676Z,20.27
2019-02-27T07:54:35.076Z,20.50
2019-02-27T07:57:03.040Z,21.50
2019-02-27T07:59:31.078Z,22.63
2019-02-27T08:02:02.343Z,20.83
2019-02-27T08:04:28.508Z,20.90
2019-02-27T08:06:56.466Z,21.37
2019-02-27T08:09:24.483Z,22.80
2019-02-27T08:11:53.530Z,88.00
2019-02-27T08:14:21.487Z,29.17
2019-02-27T08:16:49.385Z,20.30
2019-02-27T08:19:17.289Z,21.57
2019-02-27T08:21:45.190Z,21.90
2019-02-27T08:24:14.346Z,20.50
2019-02-27T08:26:42.590Z,20.80
2019-02-27T08:29:10.634Z,19.67
2019-02-27T08:31:38.656Z,21.27
2019-02-27T08:34:09.521Z,19.67
2019-02-27T08:36:37.432Z,20.70
2019-02-27T08:39:05.372Z,22.80
2019-02-27T08:41:33.324Z,23.03
2019-02-27T08:44:01.167Z,22.40
2019-02-27T08:46:29.003Z,21.20
2019-02-27T08:48:56.902Z,20.87
2019-02-27T08:51:24.758Z,21.50
2019-02-27T08:53:53.017Z,21.50
2019-02-27T08:56:21.950Z,20.17
2019-02-27T08:58:49.815Z,20.70
2019-02-27T09:01:19.080Z,18.63
2019-02-27T09:03:48.198Z,20.20
2019-02-27T09:06:18.538Z,21.20
2019-02-27T09:08:45.619Z,22.27
2019-02-27T09:11:14.724Z,20.50
2019-02-27T09:13:42.782Z,21.10
2019-02-27T09:16:10.618Z,21.07
2019-02-27T09:18:38.530Z,22.00
2019-02-27T09:21:06.394Z,20.33
2019-02-27T09:23:34.249Z,21.33
2019-02-27T09:26:02.807Z,22.37
2019-02-27T09:28:31.367Z,22.40
2019-02-27T09:31:03.348Z,21.70
2019-02-27T09:33:38.729Z,22.13
2019-02-27T09:36:07.948Z,21.67
2019-02-27T09:38:36.753Z,21.63
2019-02-27T09:41:04.664Z,21.77
2019-02-27T09:43:32.557Z,21.53
2019-02-27T09:46:00.458Z,23.13
2019-02-27T09:48:28.372Z,20.90
2019-02-27T09:50:57.010Z,20.63
2019-02-27T09:53:24.988Z,18.90
2019-02-27T09:55:54.404Z,18.87
2019-02-27T09:58:22.893Z,19.33
2019-02-27T10:00:50.760Z,19.67
2019-02-27T10:03:21.256Z,19.23
2019-02-27T10:05:48.121Z,20.17
2019-02-27T10:08:16.605Z,21.53
2019-02-27T10:10:45.785Z,21.10
2019-02-27T10:13:14.013Z,21.97
2019-02-27T10:15:41.919Z,21.33
2019-02-27T10:18:09.768Z,20.03
2019-02-27T10:20:38.040Z,23.23
2019-02-27T10:23:05.958Z,22.33
2019-02-27T10:25:34.427Z,23.10
2019-02-27T10:28:04.469Z,23.53
2019-02-27T10:30:31.834Z,25.00
2019-02-27T10:32:59.672Z,23.13
2019-02-27T10:35:29.539Z,23.00
2019-02-27T10:37:57.103Z,25.47
2019-02-27T10:40:25.429Z,24.63
2019-02-27T10:42:53.264Z,25.10
2019-02-27T10:45:21.354Z,25.13
2019-02-27T10:47:49.204Z,26.50
2019-02-27T10:50:20.603Z,26.40
2019-02-27T10:52:56.479Z,24.77
2019-02-27T10:55:24.424Z,25.03
2019-02-27T10:57:52.722Z,25.00
2019-02-27T11:00:24.884Z,24.60
2019-02-27T11:02:52.459Z,24.07
2019-02-27T11:05:19.823Z,24.10
2019-02-27T11:07:50.153Z,24.93
2019-02-27T11:10:17.200Z,23.20
2019-02-27T11:12:45.053Z,24.70
2019-02-27T11:15:12.995Z,23.73
2019-02-27T11:17:40.916Z,24.73
2019-02-27T11:20:08.967Z,23.70
2019-02-27T11:22:36.955Z,25.20
2019-02-27T11:25:04.780Z,22.17
2019-02-27T11:27:32.638Z,23.67
2019-02-27T11:30:03.008Z,24.33
2019-02-27T11:32:30.345Z,23.43
2019-02-27T11:35:04.187Z,21.57
2019-02-27T11:37:32.611Z,26.00
2019-02-27T11:40:00.986Z,25.53
2019-02-27T11:42:29.052Z,24.00
2019-02-27T11:44:58.395Z,24.80
2019-02-27T11:47:27.382Z,23.40
2019-02-27T11:49:56.381Z,24.93
2019-02-27T11:52:27.802Z,24.87
2019-02-27T11:54:54.254Z,24.00
2019-02-27T11:57:22.497Z,27.67
2019-02-27T11:59:50.643Z,26.53
2019-02-27T12:02:18.675Z,25.47
2019-02-27T12:04:46.551Z,24.97
2019-02-27T12:07:17.233Z,25.27
2019-02-27T12:09:44.262Z,25.43
2019-02-27T12:12:12.225Z,24.63
2019-02-27T12:14:40.651Z,25.80
2019-02-27T12:17:08.517Z,22.67
2019-02-27T12:19:36.386Z,24.70
2019-02-27T12:22:04.302Z,26.37
2019-02-27T12:24:32.196Z,24.13
2019-02-27T12:27:00.220Z,24.87
2019-02-27T12:29:28.123Z,23.27
2019-02-27T12:31:55.966Z,24.60
2019-02-27T12:34:25.169Z,25.10
2019-02-27T12:36:53.271Z,23.97
2019-02-27T12:39:21.121Z,25.13
2019-02-27T12:41:49.011Z,25.13
2019-02-27T12:44:16.890Z,23.70
2019-02-27T12:46:44.806Z,26.70
2019-02-27T12:49:14.159Z,24.27
2019-02-27T12:51:42.083Z,24.97
2019-02-27T12:54:10.460Z,24.17
2019-02-27T12:56:41.595Z,25.40
2019-02-27T12:59:08.683Z,25.23
2019-02-27T13:01:36.737Z,24.03
2019-02-27T13:04:04.575Z,24.03
2019-02-27T13:06:36.617Z,24.13
2019-02-27T13:09:02.198Z,25.00
2019-02-27T13:11:30.057Z,23.90
2019-02-27T13:13:59.684Z,25.50
2019-02-27T13:16:27.745Z,25.47
2019-02-27T13:18:55.909Z,23.37
2019-02-27T13:21:23.800Z,24.20
2019-02-27T13:23:51.883Z,23.20
2019-02-27T13:26:19.881Z,21.93
2019-02-27T13:28:48.785Z,21.97
2019-02-27T13:31:17.444Z,19.63
2019-02-27T13:33:45.373Z,22.23
2019-02-27T13:36:13.286Z,20.87
2019-02-27T13:38:41.148Z,19.83
2019-02-27T13:41:10.559Z,20.10
2019-02-27T13:43:38.500Z,19.33
2019-02-27T13:46:06.371Z,17.93
2019-02-27T13:48:34.501Z,19.70
2019-02-27T13:51:02.665Z,17.40
2019-02-27T13:53:30.723Z,18.20
2019-02-27T13:55:58.646Z,15.10
2019-02-27T13:58:26.514Z,16.37
2019-02-27T14:00:54.576Z,15.40
2019-02-27T14:03:22.703Z,17.40
2019-02-27T14:05:50.662Z,17.83
2019-02-27T14:08:18.678Z,15.83
2019-02-27T14:10:46.737Z,15.20
2019-02-27T14:13:14.728Z,17.53
2019-02-27T14:15:43.590Z,17.90
2019-02-27T14:18:13.367Z,17.00
2019-02-27T14:20:42.007Z,17.05
2019-02-27T14:23:11.925Z,17.87
2019-02-27T14:25:39.309Z,16.00
2019-02-27T14:28:07.233Z,16.80
2019-02-27T14:30:36.453Z,16.13
2019-02-27T14:33:04.580Z,14.70
2019-02-27T14:35:36.155Z,15.70
2019-02-27T14:38:02.340Z,13.47
2019-02-27T14:40:30.192Z,14.50
2019-02-27T14:42:58.051Z,15.00
2019-02-27T14:45:25.924Z,14.23
2019-02-27T14:47:53.769Z,14.47
2019-02-27T14:50:21.644Z,13.10
2019-02-27T14:52:50.066Z,14.03
2019-02-27T14:55:18.291Z,12.97
2019-02-27T14:57:50.086Z,11.67
2019-02-27T15:00:16.595Z,12.00
2019-02-27T15:02:44.475Z,11.27
2019-02-27T15:05:12.702Z,12.40
2019-02-27T15:07:40.567Z,11.80
2019-02-27T15:10:08.434Z,12.00
2019-02-27T15:12:36.348Z,13.07
2019-02-27T15:15:06.839Z,13.90
2019-02-27T15:17:33.739Z,12.77
2019-02-27T15:20:04.747Z,13.30
2019-02-27T15:22:31.126Z,12.50
2019-02-27T15:24:58.988Z,12.00
2019-02-27T15:27:26.873Z,12.90
2019-02-27T15:29:54.768Z,12.67
2019-02-27T15:32:22.652Z,12.03
2019-02-27T15:34:50.505Z,10.90
2019-02-27T15:37:18.372Z,11.10
2019-02-27T15:39:46.264Z,10.70
2019-02-27T15:42:16.138Z,10.50
2019-02-27T15:44:44.064Z,11.47
2019-02-27T15:47:11.928Z,11.80
2019-02-27T15:49:39.992Z,11.13
2019-02-27T15:52:07.867Z,10.40
2019-02-27T15:54:35.780Z,10.90
2019-02-27T15:57:03.607Z,12.00
2019-02-27T15:59:31.468Z,10.77
2019-02-27T16:02:03.551Z,10.70
2019-02-27T16:04:29.874Z,11.57
2019-02-27T16:06:57.727Z,10.70
2019-02-27T16:09:25.809Z,11.63
2019-02-27T16:11:53.658Z,12.00
2019-02-27T16:14:21.519Z,12.23
2019-02-27T16:16:49.415Z,11.37
2019-02-27T16:19:17.304Z,11.50
2019-02-27T16:21:45.353Z,12.90
2019-02-27T16:24:13.244Z,13.10
2019-02-27T16:26:41.101Z,12.20
2019-02-27T16:29:09.898Z,13.30
2019-02-27T16:31:40.065Z,12.83
2019-02-27T16:34:07.691Z,12.70
2019-02-27T16:36:36.401Z,13.93
2019-02-27T16:39:07.407Z,11.90
2019-02-27T16:41:34.509Z,13.23
2019-02-27T16:44:02.397Z,14.00
2019-02-27T16:46:30.277Z,13.20
2019-02-27T16:48:58.636Z,13.77
2019-02-27T16:51:27.003Z,12.80
2019-02-27T16:53:54.948Z,12.40
2019-02-27T16:56:23.112Z,14.17
2019-02-27T16:58:51.091Z,12.30
2019-02-27T17:01:21.801Z,12.50
2019-02-27T17:03:59.385Z,12.67
2019-02-27T17:06:19.290Z,13.10
2019-02-27T17:08:47.210Z,11.77
2019-02-27T17:11:15.078Z,13.17
2019-02-27T17:13:42.948Z,12.03
2019-02-27T17:16:11.534Z,12.20
2019-02-27T17:18:39.530Z,10.90
2019-02-27T17:21:07.423Z,10.77
2019-02-27T17:23:35.447Z,10.23
2019-02-27T17:26:04.335Z,9.50
2019-02-27T17:28:32.532Z,10.90
2019-02-27T17:31:01.896Z,9.77
2019-02-27T17:33:31.540Z,8.27
2019-02-27T17:36:00.124Z,9.50
2019-02-27T17:38:27.984Z,8.50
2019-02-27T17:40:55.871Z,8.30
2019-02-27T17:43:28.524Z,10.57
2019-02-27T17:45:54.480Z,9.77
2019-02-27T17:48:22.659Z,11.10
2019-02-27T17:50:50.552Z,9.90
2019-02-27T17:53:20.380Z,11.93
2019-02-27T17:55:48.040Z,10.83
2019-02-27T17:58:15.922Z,11.00
2019-02-27T18:00:44.247Z,9.90
2019-02-27T18:03:12.292Z,10.80
2019-02-27T18:05:41.177Z,10.13
2019-02-27T18:08:09.035Z,10.60
2019-02-27T18:10:37.636Z,10.90
2019-02-27T18:13:06.409Z,11.20
2019-02-27T18:15:34.270Z,11.33
2019-02-27T18:18:02.174Z,10.80
2019-02-27T18:20:31.930Z,11.30
2019-02-27T18:22:59.560Z,10.50
2019-02-27T18:25:27.791Z,10.70
2019-02-27T18:27:58.713Z,10.97
2019-02-27T18:30:25.575Z,10.58
2019-02-27T18:32:53.794Z,10.25
2019-02-27T18:35:21.660Z,9.18
2019-02-27T18:37:53.285Z,8.30
2019-02-27T18:40:19.091Z,8.00
2019-02-27T18:42:46.933Z,8.10
2019-02-27T18:45:16.084Z,8.35
2019-02-27T18:47:44.285Z,8.40
2019-02-27T18:50:12.142Z,8.38
2019-02-27T18:52:44.458Z,8.60
2019-02-27T18:55:12.497Z,8.63
2019-02-27T18:57:43.257Z,8.70
2019-02-27T19:00:09.855Z,9.33
2019-02-27T19:02:37.922Z,8.33
2019-02-27T19:05:06.736Z,7.72
2019-02-27T19:07:35.379Z,8.43
2019-02-27T19:10:03.874Z,8.50
2019-02-27T19:12:32.795Z,7.05
2019-02-27T19:15:01.079Z,7.67
2019-02-27T19:17:32.138Z,7.87
2019-02-27T19:19:59.414Z,8.63
2019-02-27T19:22:27.830Z,7.87
2019-02-27T19:24:57.484Z,8.80
2019-02-27T19:27:25.756Z,8.45
2019-02-27T19:29:53.848Z,10.53
2019-02-27T19:32:23.207Z,8.97
2019-02-27T19:34:51.609Z,8.73
2019-02-27T19:37:19.475Z,9.08
2019-02-27T19:39:47.341Z,9.15
2019-02-27T19:42:16.269Z,9.93
2019-02-27T19:44:44.158Z,9.35
2019-02-27T19:47:12.575Z,10.32
2019-02-27T19:49:40.575Z,9.48
2019-02-27T19:52:08.483Z,9.25
2019-02-27T19:54:36.864Z,8.63
2019-02-27T19:57:07.920Z,8.50
2019-02-27T19:59:34.202Z,7.28
2019-02-27T20:02:02.074Z,8.00
2019-02-27T20:04:30.052Z,8.05
2019-02-27T20:06:58.347Z,7.55
2019-02-27T20:09:27.520Z,7.28
2019-02-27T20:11:55.576Z,7.60
2019-02-27T20:14:23.696Z,7.53
2019-02-27T20:16:55.311Z,7.58
2019-02-27T20:19:28.366Z,7.42
2019-02-27T20:21:53.796Z,8.23
2019-02-27T20:24:21.662Z,8.38
2019-02-27T20:26:51.403Z,9.10
2019-02-27T20:29:19.149Z,9.78
2019-02-27T20:31:47.072Z,8.40
2019-02-27T20:34:15.086Z,7.92
2019-02-27T20:36:42.931Z,7.65
2019-02-27T20:39:10.924Z,8.35
2019-02-27T20:41:40.977Z,8.25
2019-02-27T20:44:08.499Z,6.72
2019-02-27T20:46:36.347Z,7.70
2019-02-27T20:49:04.215Z,8.28
2019-02-27T20:51:32.131Z,7.45
2019-02-27T20:54:00.164Z,7.60
2019-02-27T20:56:27.989Z,7.20
2019-02-27T20:58:55.859Z,6.15
2019-02-27T21:01:23.785Z,6.80
2019-02-27T21:03:52.525Z,6.03
2019-02-27T21:06:20.435Z,6.65
2019-02-27T21:08:48.301Z,5.85
2019-02-27T21:11:16.151Z,6.40
2019-02-27T21:13:44.304Z,5.53
2019-02-27T21:16:12.172Z,5.80
2019-02-27T21:18:40.028Z,6.20
2019-02-27T21:21:08.427Z,5.50
2019-02-27T21:23:36.328Z,7.40
2019-02-27T21:26:04.422Z,6.30
2019-02-27T21:28:32.549Z,6.20
2019-02-27T21:31:01.322Z,5.53
2019-02-27T21:33:29.223Z,6.20
2019-02-27T21:35:57.163Z,6.35
2019-02-27T21:38:24.998Z,6.35
2019-02-27T21:40:53.010Z,6.53
2019-02-27T21:43:25.164Z,6.80
2019-02-27T21:45:51.467Z,7.40
2019-02-27T21:48:19.842Z,7.70
2019-02-27T21:50:47.826Z,7.30
2019-02-27T21:53:15.832Z,8.28
2019-02-27T21:55:44.694Z,9.08
2019-02-27T21:58:20.343Z,7.10
2019-02-27T22:00:44.910Z,7.22
2019-02-27T22:03:12.650Z,7.65
2019-02-27T22:05:42.970Z,7.95
2019-02-27T22:08:10.970Z,8.13
2019-02-27T22:10:38.845Z,6.97
2019-02-27T22:13:10.473Z,8.13
2019-02-27T22:15:36.253Z,7.17
2019-02-27T22:18:04.130Z,6.78
2019-02-27T22:20:32.069Z,6.87
2019-02-27T22:23:00.135Z,6.85
2019-02-27T22:25:31.073Z,6.67
2019-02-27T22:27:58.535Z,8.23
2019-02-27T22:30:26.518Z,7.50
2019-02-27T22:32:54.434Z,7.75
2019-02-27T22:35:22.614Z,7.40
2019-02-27T22:37:52.500Z,7.17
2019-02-27T22:40:20.117Z,7.45
2019-02-27T22:42:48.631Z,7.22
2019-02-27T22:45:17.201Z,7.55
2019-02-27T22:47:45.087Z,8.28
2019-02-27T22:50:12.996Z,8.20
2019-02-27T22:52:40.872Z,7.80
2019-02-27T22:55:10.715Z,7.28
2019-02-27T22:57:38.877Z,6.45
2019-02-27T23:00:08.162Z,7.78
2019-02-27T23:02:36.577Z,7.43
2019-02-27T23:05:05.075Z,7.83
2019-02-27T23:07:33.072Z,7.22
2019-02-27T23:10:00.961Z,8.08
2019-02-27T23:12:28.878Z,7.03
2019-02-27T23:14:56.769Z,7.00
2019-02-27T23:17:24.677Z,6.40
2019-02-27T23:19:52.572Z,8.05
2019-02-27T23:22:20.730Z,10.00
2019-02-27T23:24:48.653Z,11.60
2019-02-27T23:27:16.511Z,17.95
2019-02-27T23:29:44.514Z,16.95
2019-02-27T23:32:12.398Z,21.68
2019-02-27T23:34:41.653Z,23.95
2019-02-27T23:37:09.875Z,20.02
2019-02-27T23:39:39.663Z,18.42
2019-02-27T23:42:07.426Z,18.95
2019-02-27T23:44:38.457Z,19.60
2019-02-27T23:47:05.162Z,14.38
2019-02-27T23:49:33.072Z,11.53
2019-02-27T23:52:00.972Z,11.63
2019-02-27T23:54:32.389Z,12.40
2019-02-27T23:56:59.004Z,9.40
2019-02-27T23:59:26.857Z,8.58
